sensor_id;sensor_type;location;lat;lon;timestamp;P1;durP1;ratioP1;P2;durP2;ratioP2
703;SDS011;335;48.694;9.120;2023-07-29T00:01:01;1.63;;;1.53;;
703;SDS011;335;48.694;9.120;2023-07-29T00:03:27;1.00;;;1.00;;
703;SDS011;335;48.694;9.120;2023-07-29T00:05:52;2.13;;;1.53;;
703;SDS011;335;48.694;9.120;2023-07-29T00:08:17;1.67;;;1.57;;
703;SDS011;335;48.694;9.120;2023-07-29T00:10:43;1.53;;;1.53;;
703;SDS011;335;48.694;9.120;2023-07-29T00:13:08;1.70;;;1.70;;
703;SDS011;335;48.694;9.120;2023-07-29T00:15:33;1.40;;;1.40;;
703;SDS011;335;48.694;9.120;2023-07-29T00:17:59;2.07;;;1.97;;
703;SDS011;335;48.694;9.120;2023-07-29T00:20:24;1.63;;;1.53;;
703;SDS011;335;48.694;9.120;2023-07-29T00:22:49;1.53;;;1.53;;
703;SDS011;335;48.694;9.120;2023-07-29T00:25:18;1.80;;;1.50;;
703;SDS011;335;48.694;9.120;2023-07-29T00:27:43;2.30;;;2.10;;
703;SDS011;335;48.694;9.120;2023-07-29T00:30:08;1.53;;;1.50;;
703;SDS011;335;48.694;9.120;2023-07-29T00:32:34;1.50;;;1.50;;
703;SDS011;335;48.694;9.120;2023-07-29T00:35:00;1.27;;;1.20;;
703;SDS011;335;48.694;9.120;2023-07-29T00:37:26;1.37;;;1.27;;
703;SDS011;335;48.694;9.120;2023-07-29T00:39:51;1.47;;;1.47;;
703;SDS011;335;48.694;9.120;2023-07-29T00:42:16;1.57;;;1.50;;
703;SDS011;335;48.694;9.120;2023-07-29T00:44:42;1.60;;;1.43;;
703;SDS011;335;48.694;9.120;2023-07-29T00:47:07;1.40;;;1.27;;
703;SDS011;335;48.694;9.120;2023-07-29T00:49:32;1.17;;;1.07;;
703;SDS011;335;48.694;9.120;2023-07-29T00:51:58;1.27;;;1.27;;
703;SDS011;335;48.694;9.120;2023-07-29T00:54:24;1.40;;;1.30;;
703;SDS011;335;48.694;9.120;2023-07-29T00:56:49;1.40;;;1.40;;
703;SDS011;335;48.694;9.120;2023-07-29T00:59:15;1.70;;;1.20;;
703;SDS011;335;48.694;9.120;2023-07-29T01:01:40;1.43;;;1.33;;
703;SDS011;335;48.694;9.120;2023-07-29T01:04:05;1.37;;;1.37;;
703;SDS011;335;48.694;9.120;2023-07-29T01:06:50;1.53;;;1.53;;
703;SDS011;335;48.694;9.120;2023-07-29T01:12:08;1.63;;;1.53;;
703;SDS011;335;48.694;9.120;2023-07-29T01:14:51;1.20;;;1.20;;
703;SDS011;335;48.694;9.120;2023-07-29T01:17:25;1.40;;;1.40;;
703;SDS011;335;48.694;9.120;2023-07-29T01:22:34;1.80;;;1.47;;
703;SDS011;335;48.694;9.120;2023-07-29T01:25:00;1.00;;;0.90;;
703;SDS011;335;48.694;9.120;2023-07-29T01:27:25;1.90;;;1.00;;
703;SDS011;335;48.694;9.120;2023-07-29T01:29:51;1.30;;;1.20;;
703;SDS011;335;48.694;9.120;2023-07-29T01:32:20;1.23;;;1.23;;
703;SDS011;335;48.694;9.120;2023-07-29T01:34:59;1.17;;;1.17;;
703;SDS011;335;48.694;9.120;2023-07-29T01:37:29;1.50;;;1.40;;
703;SDS011;335;48.694;9.120;2023-07-29T01:39:56;1.33;;;1.33;;
703;SDS011;335;48.694;9.120;2023-07-29T01:42:22;1.10;;;1.10;;
703;SDS011;335;48.694;9.120;2023-07-29T01:44:48;1.40;;;1.40;;
703;SDS011;335;48.694;9.120;2023-07-29T01:47:13;1.20;;;1.20;;
703;SDS011;335;48.694;9.120;2023-07-29T01:49:39;1.63;;;1.53;;
703;SDS011;335;48.694;9.120;2023-07-29T01:52:04;1.23;;;1.23;;
703;SDS011;335;48.694;9.120;2023-07-29T01:54:30;1.00;;;1.00;;
703;SDS011;335;48.694;9.120;2023-07-29T01:57:01;2.50;;;1.60;;
703;SDS011;335;48.694;9.120;2023-07-29T01:59:26;1.40;;;1.40;;
703;SDS011;335;48.694;9.120;2023-07-29T02:01:52;1.83;;;1.73;;
703;SDS011;335;48.694;9.120;2023-07-29T02:04:17;1.87;;;1.77;;
703;SDS011;335;48.694;9.120;2023-07-29T02:06:42;3.53;;;1.50;;
703;SDS011;335;48.694;9.120;2023-07-29T02:09:08;1.60;;;1.50;;
703;SDS011;335;48.694;9.120;2023-07-29T02:11:33;1.50;;;1.50;;
703;SDS011;335;48.694;9.120;2023-07-29T02:13:58;1.87;;;1.60;;
703;SDS011;335;48.694;9.120;2023-07-29T02:16:24;1.20;;;1.20;;
703;SDS011;335;48.694;9.120;2023-07-29T02:18:49;1.90;;;1.80;;
703;SDS011;335;48.694;9.120;2023-07-29T02:21:15;2.07;;;1.97;;
703;SDS011;335;48.694;9.120;2023-07-29T02:23:41;1.30;;;1.30;;
703;SDS011;335;48.694;9.120;2023-07-29T02:26:06;1.67;;;1.60;;
703;SDS011;335;48.694;9.120;2023-07-29T02:28:31;1.43;;;1.20;;
703;SDS011;335;48.694;9.120;2023-07-29T02:33:52;2.30;;;2.20;;
703;SDS011;335;48.694;9.120;2023-07-29T02:36:17;1.77;;;1.67;;
703;SDS011;335;48.694;9.120;2023-07-29T02:38:43;1.40;;;1.40;;
703;SDS011;335;48.694;9.120;2023-07-29T02:41:08;1.83;;;1.23;;
703;SDS011;335;48.694;9.120;2023-07-29T02:43:35;1.87;;;1.77;;
703;SDS011;335;48.694;9.120;2023-07-29T02:46:01;1.63;;;1.53;;
703;SDS011;335;48.694;9.120;2023-07-29T02:48:26;1.90;;;1.80;;
703;SDS011;335;48.694;9.120;2023-07-29T02:50:53;1.27;;;1.27;;
703;SDS011;335;48.694;9.120;2023-07-29T02:53:18;1.40;;;1.40;;
703;SDS011;335;48.694;9.120;2023-07-29T02:55:43;2.30;;;1.77;;
703;SDS011;335;48.694;9.120;2023-07-29T02:58:09;1.50;;;1.43;;
703;SDS011;335;48.694;9.120;2023-07-29T03:00:34;2.47;;;1.80;;
703;SDS011;335;48.694;9.120;2023-07-29T03:03:00;1.37;;;1.30;;
703;SDS011;335;48.694;9.120;2023-07-29T03:05:28;1.20;;;1.20;;
703;SDS011;335;48.694;9.120;2023-07-29T03:07:54;1.63;;;1.30;;
703;SDS011;335;48.694;9.120;2023-07-29T03:10:19;1.53;;;1.37;;
703;SDS011;335;48.694;9.120;2023-07-29T03:12:45;2.33;;;1.77;;
703;SDS011;335;48.694;9.120;2023-07-29T03:15:11;1.40;;;1.40;;
703;SDS011;335;48.694;9.120;2023-07-29T03:17:37;1.87;;;1.77;;
703;SDS011;335;48.694;9.120;2023-07-29T03:20:02;2.10;;;1.67;;
703;SDS011;335;48.694;9.120;2023-07-29T03:22:28;1.70;;;1.60;;
703;SDS011;335;48.694;9.120;2023-07-29T03:24:53;2.23;;;1.60;;
703;SDS011;335;48.694;9.120;2023-07-29T03:27:18;2.10;;;1.50;;
703;SDS011;335;48.694;9.120;2023-07-29T03:29:44;2.20;;;2.10;;
703;SDS011;335;48.694;9.120;2023-07-29T03:32:09;2.20;;;1.70;;
703;SDS011;335;48.694;9.120;2023-07-29T03:34:35;1.80;;;1.70;;
703;SDS011;335;48.694;9.120;2023-07-29T03:37:01;1.80;;;1.70;;
703;SDS011;335;48.694;9.120;2023-07-29T03:39:26;1.73;;;1.63;;
703;SDS011;335;48.694;9.120;2023-07-29T03:41:52;1.93;;;1.83;;
703;SDS011;335;48.694;9.120;2023-07-29T03:44:17;1.87;;;1.63;;
703;SDS011;335;48.694;9.120;2023-07-29T03:46:43;2.70;;;1.70;;
703;SDS011;335;48.694;9.120;2023-07-29T03:49:09;3.43;;;1.57;;
703;SDS011;335;48.694;9.120;2023-07-29T03:51:34;2.63;;;2.43;;
703;SDS011;335;48.694;9.120;2023-07-29T03:54:00;1.30;;;1.30;;
703;SDS011;335;48.694;9.120;2023-07-29T03:56:25;1.53;;;1.43;;
703;SDS011;335;48.694;9.120;2023-07-29T03:58:52;1.60;;;1.50;;
703;SDS011;335;48.694;9.120;2023-07-29T04:01:17;2.63;;;1.63;;
703;SDS011;335;48.694;9.120;2023-07-29T04:03:44;2.73;;;2.47;;
703;SDS011;335;48.694;9.120;2023-07-29T04:06:10;2.00;;;1.90;;
703;SDS011;335;48.694;9.120;2023-07-29T04:08:35;1.30;;;1.30;;
703;SDS011;335;48.694;9.120;2023-07-29T04:11:00;1.57;;;1.30;;
703;SDS011;335;48.694;9.120;2023-07-29T04:13:26;1.70;;;1.60;;
703;SDS011;335;48.694;9.120;2023-07-29T04:15:51;1.90;;;1.80;;
703;SDS011;335;48.694;9.120;2023-07-29T04:18:16;1.63;;;1.53;;
703;SDS011;335;48.694;9.120;2023-07-29T04:20:42;1.70;;;1.60;;
703;SDS011;335;48.694;9.120;2023-07-29T04:23:07;3.60;;;2.60;;
703;SDS011;335;48.694;9.120;2023-07-29T04:25:32;2.33;;;2.13;;
703;SDS011;335;48.694;9.120;2023-07-29T04:27:58;4.93;;;1.97;;
703;SDS011;335;48.694;9.120;2023-07-29T04:30:23;2.20;;;2.10;;
703;SDS011;335;48.694;9.120;2023-07-29T04:32:48;2.40;;;1.77;;
703;SDS011;335;48.694;9.120;2023-07-29T04:35:15;2.50;;;2.23;;
703;SDS011;335;48.694;9.120;2023-07-29T04:37:40;2.50;;;2.40;;
703;SDS011;335;48.694;9.120;2023-07-29T04:40:06;2.07;;;1.97;;
703;SDS011;335;48.694;9.120;2023-07-29T04:42:32;2.40;;;2.20;;
703;SDS011;335;48.694;9.120;2023-07-29T04:45:00;2.00;;;1.90;;
703;SDS011;335;48.694;9.120;2023-07-29T04:47:26;2.63;;;2.43;;
703;SDS011;335;48.694;9.120;2023-07-29T04:49:51;2.37;;;2.00;;
703;SDS011;335;48.694;9.120;2023-07-29T04:52:16;2.47;;;2.27;;
703;SDS011;335;48.694;9.120;2023-07-29T04:54:44;2.40;;;2.20;;
703;SDS011;335;48.694;9.120;2023-07-29T04:57:09;3.40;;;2.47;;
703;SDS011;335;48.694;9.120;2023-07-29T04:59:34;2.50;;;2.30;;
703;SDS011;335;48.694;9.120;2023-07-29T05:02:00;2.50;;;2.40;;
703;SDS011;335;48.694;9.120;2023-07-29T05:04:25;3.67;;;2.50;;
703;SDS011;335;48.694;9.120;2023-07-29T05:06:51;2.43;;;2.30;;
703;SDS011;335;48.694;9.120;2023-07-29T05:09:17;2.50;;;2.40;;
703;SDS011;335;48.694;9.120;2023-07-29T05:11:44;2.30;;;2.10;;
703;SDS011;335;48.694;9.120;2023-07-29T05:14:10;3.80;;;2.53;;
703;SDS011;335;48.694;9.120;2023-07-29T05:16:36;2.37;;;2.27;;
703;SDS011;335;48.694;9.120;2023-07-29T05:19:01;2.60;;;2.40;;
703;SDS011;335;48.694;9.120;2023-07-29T05:21:27;2.93;;;2.47;;
703;SDS011;335;48.694;9.120;2023-07-29T05:23:52;2.20;;;2.10;;
703;SDS011;335;48.694;9.120;2023-07-29T05:26:17;5.23;;;2.87;;
703;SDS011;335;48.694;9.120;2023-07-29T05:28:43;2.50;;;2.30;;
703;SDS011;335;48.694;9.120;2023-07-29T05:31:08;2.67;;;2.40;;
703;SDS011;335;48.694;9.120;2023-07-29T05:33:33;2.60;;;2.50;;
703;SDS011;335;48.694;9.120;2023-07-29T05:36:01;2.33;;;2.23;;
703;SDS011;335;48.694;9.120;2023-07-29T05:38:26;2.43;;;2.30;;
703;SDS011;335;48.694;9.120;2023-07-29T05:40:51;2.97;;;2.77;;
703;SDS011;335;48.694;9.120;2023-07-29T05:43:17;2.10;;;2.00;;
703;SDS011;335;48.694;9.120;2023-07-29T05:45:42;2.63;;;2.30;;
703;SDS011;335;48.694;9.120;2023-07-29T05:48:07;2.30;;;2.20;;
703;SDS011;335;48.694;9.120;2023-07-29T05:50:33;2.57;;;2.47;;
703;SDS011;335;48.694;9.120;2023-07-29T05:52:58;2.40;;;2.30;;
703;SDS011;335;48.694;9.120;2023-07-29T05:55:24;2.87;;;2.57;;
703;SDS011;335;48.694;9.120;2023-07-29T05:57:49;1.97;;;1.87;;
703;SDS011;335;48.694;9.120;2023-07-29T06:00:14;2.10;;;2.00;;
703;SDS011;335;48.694;9.120;2023-07-29T06:02:40;3.00;;;2.70;;
703;SDS011;335;48.694;9.120;2023-07-29T06:05:08;1.97;;;1.87;;
703;SDS011;335;48.694;9.120;2023-07-29T06:07:33;1.90;;;1.80;;
703;SDS011;335;48.694;9.120;2023-07-29T06:09:59;2.10;;;2.00;;
703;SDS011;335;48.694;9.120;2023-07-29T06:12:25;1.97;;;1.87;;
703;SDS011;335;48.694;9.120;2023-07-29T06:14:51;1.50;;;1.43;;
703;SDS011;335;48.694;9.120;2023-07-29T06:17:16;1.80;;;1.70;;
703;SDS011;335;48.694;9.120;2023-07-29T06:19:41;1.67;;;1.67;;
703;SDS011;335;48.694;9.120;2023-07-29T06:22:07;1.70;;;1.60;;
703;SDS011;335;48.694;9.120;2023-07-29T06:24:32;1.90;;;1.80;;
703;SDS011;335;48.694;9.120;2023-07-29T06:26:58;1.90;;;1.80;;
703;SDS011;335;48.694;9.120;2023-07-29T06:29:23;2.53;;;1.73;;
703;SDS011;335;48.694;9.120;2023-07-29T06:31:48;2.00;;;1.90;;
703;SDS011;335;48.694;9.120;2023-07-29T06:34:16;1.60;;;1.50;;
703;SDS011;335;48.694;9.120;2023-07-29T06:36:42;1.97;;;1.77;;
703;SDS011;335;48.694;9.120;2023-07-29T06:39:07;1.70;;;1.60;;
703;SDS011;335;48.694;9.120;2023-07-29T06:41:33;2.10;;;2.00;;
703;SDS011;335;48.694;9.120;2023-07-29T06:43:58;3.60;;;2.40;;
703;SDS011;335;48.694;9.120;2023-07-29T06:46:24;2.03;;;1.77;;
703;SDS011;335;48.694;9.120;2023-07-29T06:48:49;2.30;;;2.20;;
703;SDS011;335;48.694;9.120;2023-07-29T06:51:14;2.00;;;1.90;;
703;SDS011;335;48.694;9.120;2023-07-29T06:53:40;1.87;;;1.87;;
703;SDS011;335;48.694;9.120;2023-07-29T06:56:05;2.30;;;2.20;;
703;SDS011;335;48.694;9.120;2023-07-29T06:58:30;2.63;;;2.40;;
703;SDS011;335;48.694;9.120;2023-07-29T07:00:56;2.43;;;2.33;;
703;SDS011;335;48.694;9.120;2023-07-29T07:03:21;2.93;;;2.50;;
703;SDS011;335;48.694;9.120;2023-07-29T07:05:46;6.73;;;2.60;;
703;SDS011;335;48.694;9.120;2023-07-29T07:08:12;2.90;;;2.70;;
703;SDS011;335;48.694;9.120;2023-07-29T07:10:37;2.43;;;2.27;;
703;SDS011;335;48.694;9.120;2023-07-29T07:13:02;3.27;;;3.07;;
703;SDS011;335;48.694;9.120;2023-07-29T07:15:28;2.40;;;2.30;;
703;SDS011;335;48.694;9.120;2023-07-29T07:17:53;3.83;;;3.53;;
703;SDS011;335;48.694;9.120;2023-07-29T07:20:18;2.80;;;2.50;;
703;SDS011;335;48.694;9.120;2023-07-29T07:22:44;3.10;;;2.90;;
703;SDS011;335;48.694;9.120;2023-07-29T07:25:09;3.73;;;2.70;;
703;SDS011;335;48.694;9.120;2023-07-29T07:27:34;3.47;;;3.20;;
703;SDS011;335;48.694;9.120;2023-07-29T07:30:01;1.90;;;1.80;;
703;SDS011;335;48.694;9.120;2023-07-29T07:32:26;2.13;;;2.03;;
703;SDS011;335;48.694;9.120;2023-07-29T07:34:51;2.27;;;2.07;;
703;SDS011;335;48.694;9.120;2023-07-29T07:37:17;2.17;;;2.07;;
703;SDS011;335;48.694;9.120;2023-07-29T07:39:42;2.37;;;2.17;;
703;SDS011;335;48.694;9.120;2023-07-29T07:42:07;1.87;;;1.77;;
703;SDS011;335;48.694;9.120;2023-07-29T07:44:33;1.63;;;1.47;;
703;SDS011;335;48.694;9.120;2023-07-29T07:46:58;2.03;;;1.93;;
703;SDS011;335;48.694;9.120;2023-07-29T07:49:23;1.57;;;1.50;;
703;SDS011;335;48.694;9.120;2023-07-29T07:51:49;1.33;;;1.10;;
703;SDS011;335;48.694;9.120;2023-07-29T07:54:14;1.73;;;1.40;;
703;SDS011;335;48.694;9.120;2023-07-29T07:56:39;1.37;;;1.37;;
703;SDS011;335;48.694;9.120;2023-07-29T07:59:05;1.63;;;1.63;;
703;SDS011;335;48.694;9.120;2023-07-29T08:01:37;1.37;;;1.33;;
703;SDS011;335;48.694;9.120;2023-07-29T08:04:03;1.30;;;1.30;;
703;SDS011;335;48.694;9.120;2023-07-29T08:06:29;1.37;;;1.27;;
703;SDS011;335;48.694;9.120;2023-07-29T08:08:55;1.27;;;1.27;;
703;SDS011;335;48.694;9.120;2023-07-29T08:11:21;1.30;;;1.30;;
703;SDS011;335;48.694;9.120;2023-07-29T08:13:46;1.73;;;1.63;;
703;SDS011;335;48.694;9.120;2023-07-29T08:16:12;1.47;;;1.20;;
703;SDS011;335;48.694;9.120;2023-07-29T08:18:37;1.73;;;1.43;;
703;SDS011;335;48.694;9.120;2023-07-29T08:21:03;1.20;;;1.20;;
703;SDS011;335;48.694;9.120;2023-07-29T08:23:32;3.37;;;1.50;;
703;SDS011;335;48.694;9.120;2023-07-29T08:25:59;1.23;;;1.23;;
703;SDS011;335;48.694;9.120;2023-07-29T08:28:33;1.50;;;1.50;;
703;SDS011;335;48.694;9.120;2023-07-29T08:31:03;1.70;;;1.60;;
703;SDS011;335;48.694;9.120;2023-07-29T08:33:29;1.13;;;1.13;;
703;SDS011;335;48.694;9.120;2023-07-29T08:35:55;1.93;;;1.83;;
703;SDS011;335;48.694;9.120;2023-07-29T08:38:21;1.23;;;1.23;;
703;SDS011;335;48.694;9.120;2023-07-29T08:43:19;1.10;;;1.10;;
703;SDS011;335;48.694;9.120;2023-07-29T08:45:45;1.23;;;1.23;;
703;SDS011;335;48.694;9.120;2023-07-29T08:48:11;1.17;;;1.17;;
703;SDS011;335;48.694;9.120;2023-07-29T08:50:37;1.30;;;1.20;;
703;SDS011;335;48.694;9.120;2023-07-29T08:53:03;1.90;;;1.00;;
703;SDS011;335;48.694;9.120;2023-07-29T08:55:30;1.33;;;1.33;;
703;SDS011;335;48.694;9.120;2023-07-29T08:57:56;1.57;;;1.47;;
703;SDS011;335;48.694;9.120;2023-07-29T09:00:23;1.60;;;1.50;;
703;SDS011;335;48.694;9.120;2023-07-29T09:02:48;1.67;;;1.57;;
703;SDS011;335;48.694;9.120;2023-07-29T09:05:13;1.57;;;1.57;;
703;SDS011;335;48.694;9.120;2023-07-29T09:07:39;1.63;;;1.53;;
703;SDS011;335;48.694;9.120;2023-07-29T09:10:07;2.30;;;1.40;;
703;SDS011;335;48.694;9.120;2023-07-29T09:12:35;1.60;;;1.40;;
703;SDS011;335;48.694;9.120;2023-07-29T09:15:00;1.47;;;1.43;;
703;SDS011;335;48.694;9.120;2023-07-29T09:17:26;1.30;;;1.20;;
703;SDS011;335;48.694;9.120;2023-07-29T09:19:51;1.07;;;1.07;;
703;SDS011;335;48.694;9.120;2023-07-29T09:22:17;1.30;;;1.20;;
703;SDS011;335;48.694;9.120;2023-07-29T09:24:44;1.47;;;1.27;;
703;SDS011;335;48.694;9.120;2023-07-29T09:27:10;1.30;;;1.30;;
703;SDS011;335;48.694;9.120;2023-07-29T09:29:48;1.00;;;1.00;;
703;SDS011;335;48.694;9.120;2023-07-29T09:32:20;1.80;;;0.90;;
703;SDS011;335;48.694;9.120;2023-07-29T09:34:46;1.63;;;1.30;;
703;SDS011;335;48.694;9.120;2023-07-29T09:37:31;2.60;;;1.07;;
703;SDS011;335;48.694;9.120;2023-07-29T09:39:57;1.20;;;1.10;;
703;SDS011;335;48.694;9.120;2023-07-29T09:42:22;2.40;;;1.40;;
703;SDS011;335;48.694;9.120;2023-07-29T09:44:48;1.00;;;1.00;;
703;SDS011;335;48.694;9.120;2023-07-29T09:47:24;1.40;;;1.30;;
703;SDS011;335;48.694;9.120;2023-07-29T09:49:51;1.53;;;1.43;;
703;SDS011;335;48.694;9.120;2023-07-29T09:52:18;1.30;;;1.00;;
703;SDS011;335;48.694;9.120;2023-07-29T09:54:44;1.17;;;1.10;;
703;SDS011;335;48.694;9.120;2023-07-29T09:57:11;1.23;;;1.13;;
703;SDS011;335;48.694;9.120;2023-07-29T09:59:37;1.10;;;1.10;;
703;SDS011;335;48.694;9.120;2023-07-29T10:02:03;1.17;;;1.17;;
703;SDS011;335;48.694;9.120;2023-07-29T10:04:28;1.17;;;1.03;;
703;SDS011;335;48.694;9.120;2023-07-29T10:06:54;1.60;;;1.50;;
703;SDS011;335;48.694;9.120;2023-07-29T10:09:20;1.37;;;1.37;;
703;SDS011;335;48.694;9.120;2023-07-29T10:11:45;1.20;;;1.20;;
703;SDS011;335;48.694;9.120;2023-07-29T10:14:11;1.10;;;1.10;;
703;SDS011;335;48.694;9.120;2023-07-29T10:16:36;1.60;;;1.60;;
703;SDS011;335;48.694;9.120;2023-07-29T10:19:03;1.60;;;1.50;;
703;SDS011;335;48.694;9.120;2023-07-29T10:21:29;1.47;;;1.37;;
703;SDS011;335;48.694;9.120;2023-07-29T10:23:55;1.47;;;1.37;;
703;SDS011;335;48.694;9.120;2023-07-29T10:26:23;1.30;;;1.30;;
703;SDS011;335;48.694;9.120;2023-07-29T10:28:49;1.87;;;1.77;;
703;SDS011;335;48.694;9.120;2023-07-29T10:31:16;1.40;;;1.40;;
703;SDS011;335;48.694;9.120;2023-07-29T10:33:42;1.60;;;1.50;;
703;SDS011;335;48.694;9.120;2023-07-29T10:36:08;1.53;;;1.53;;
703;SDS011;335;48.694;9.120;2023-07-29T10:38:34;1.60;;;1.60;;
703;SDS011;335;48.694;9.120;2023-07-29T10:40:59;1.50;;;1.40;;
703;SDS011;335;48.694;9.120;2023-07-29T10:43:28;1.30;;;1.30;;
703;SDS011;335;48.694;9.120;2023-07-29T10:45:57;1.40;;;1.40;;
703;SDS011;335;48.694;9.120;2023-07-29T10:51:21;1.53;;;1.40;;
703;SDS011;335;48.694;9.120;2023-07-29T10:53:54;1.17;;;1.17;;
703;SDS011;335;48.694;9.120;2023-07-29T10:56:30;1.40;;;1.40;;
703;SDS011;335;48.694;9.120;2023-07-29T10:58:58;1.83;;;1.73;;
703;SDS011;335;48.694;9.120;2023-07-29T11:01:50;1.50;;;1.40;;
703;SDS011;335;48.694;9.120;2023-07-29T11:04:25;1.50;;;1.50;;
703;SDS011;335;48.694;9.120;2023-07-29T11:15:01;1.53;;;1.53;;
703;SDS011;335;48.694;9.120;2023-07-29T11:17:29;1.40;;;1.40;;
703;SDS011;335;48.694;9.120;2023-07-29T11:19:57;1.33;;;1.33;;
703;SDS011;335;48.694;9.120;2023-07-29T11:22:28;1.90;;;1.80;;
703;SDS011;335;48.694;9.120;2023-07-29T11:24:54;1.60;;;1.50;;
703;SDS011;335;48.694;9.120;2023-07-29T11:27:20;1.53;;;1.50;;
703;SDS011;335;48.694;9.120;2023-07-29T11:29:46;1.30;;;1.20;;
703;SDS011;335;48.694;9.120;2023-07-29T11:32:11;1.27;;;1.27;;
703;SDS011;335;48.694;9.120;2023-07-29T11:34:37;1.40;;;1.40;;
703;SDS011;335;48.694;9.120;2023-07-29T11:37:05;1.63;;;1.47;;
703;SDS011;335;48.694;9.120;2023-07-29T11:39:31;1.00;;;1.00;;
703;SDS011;335;48.694;9.120;2023-07-29T11:41:57;2.60;;;1.63;;
703;SDS011;335;48.694;9.120;2023-07-29T11:44:22;7.30;;;2.23;;
703;SDS011;335;48.694;9.120;2023-07-29T11:46:48;3.17;;;1.70;;
703;SDS011;335;48.694;9.120;2023-07-29T11:49:13;1.40;;;1.30;;
703;SDS011;335;48.694;9.120;2023-07-29T11:51:39;1.50;;;1.40;;
703;SDS011;335;48.694;9.120;2023-07-29T11:54:06;1.67;;;1.57;;
703;SDS011;335;48.694;9.120;2023-07-29T11:56:32;1.40;;;1.30;;
703;SDS011;335;48.694;9.120;2023-07-29T11:58:57;2.70;;;1.53;;
703;SDS011;335;48.694;9.120;2023-07-29T12:01:22;1.50;;;1.40;;
703;SDS011;335;48.694;9.120;2023-07-29T12:03:48;1.23;;;1.20;;
703;SDS011;335;48.694;9.120;2023-07-29T12:06:14;1.47;;;1.47;;
703;SDS011;335;48.694;9.120;2023-07-29T12:08:40;1.60;;;1.60;;
703;SDS011;335;48.694;9.120;2023-07-29T12:11:06;1.70;;;1.70;;
703;SDS011;335;48.694;9.120;2023-07-29T12:13:32;1.57;;;1.47;;
703;SDS011;335;48.694;9.120;2023-07-29T12:16:01;1.33;;;1.33;;
703;SDS011;335;48.694;9.120;2023-07-29T12:18:30;2.10;;;1.53;;
703;SDS011;335;48.694;9.120;2023-07-29T12:20:56;1.50;;;1.50;;
703;SDS011;335;48.694;9.120;2023-07-29T12:23:25;1.57;;;1.57;;
703;SDS011;335;48.694;9.120;2023-07-29T12:25:57;1.40;;;1.40;;
703;SDS011;335;48.694;9.120;2023-07-29T12:28:24;2.00;;;1.60;;
703;SDS011;335;48.694;9.120;2023-07-29T12:30:53;3.50;;;1.43;;
703;SDS011;335;48.694;9.120;2023-07-29T12:35:56;1.57;;;1.30;;
703;SDS011;335;48.694;9.120;2023-07-29T12:38:21;1.40;;;1.30;;
703;SDS011;335;48.694;9.120;2023-07-29T12:40:47;1.50;;;1.50;;
703;SDS011;335;48.694;9.120;2023-07-29T12:43:12;1.33;;;1.30;;
703;SDS011;335;48.694;9.120;2023-07-29T12:45:38;1.70;;;1.60;;
703;SDS011;335;48.694;9.120;2023-07-29T12:48:05;2.70;;;1.47;;
703;SDS011;335;48.694;9.120;2023-07-29T12:50:30;1.63;;;1.53;;
703;SDS011;335;48.694;9.120;2023-07-29T12:52:56;1.50;;;1.50;;
703;SDS011;335;48.694;9.120;2023-07-29T12:55:22;1.67;;;1.67;;
703;SDS011;335;48.694;9.120;2023-07-29T12:57:47;1.60;;;1.60;;
703;SDS011;335;48.694;9.120;2023-07-29T13:00:13;1.20;;;1.20;;
703;SDS011;335;48.694;9.120;2023-07-29T13:02:38;1.67;;;1.67;;
703;SDS011;335;48.694;9.120;2023-07-29T13:05:03;1.47;;;1.47;;
703;SDS011;335;48.694;9.120;2023-07-29T13:07:29;1.20;;;1.20;;
703;SDS011;335;48.694;9.120;2023-07-29T13:09:55;1.20;;;1.20;;
703;SDS011;335;48.694;9.120;2023-07-29T13:12:20;1.43;;;1.40;;
703;SDS011;335;48.694;9.120;2023-07-29T13:14:45;1.50;;;1.50;;
703;SDS011;335;48.694;9.120;2023-07-29T13:17:11;1.60;;;1.60;;
703;SDS011;335;48.694;9.120;2023-07-29T13:19:36;1.50;;;1.50;;
703;SDS011;335;48.694;9.120;2023-07-29T13:22:01;1.60;;;1.50;;
703;SDS011;335;48.694;9.120;2023-07-29T13:24:27;1.63;;;1.53;;
703;SDS011;335;48.694;9.120;2023-07-29T13:26:52;1.47;;;1.47;;
703;SDS011;335;48.694;9.120;2023-07-29T13:29:17;1.50;;;1.50;;
703;SDS011;335;48.694;9.120;2023-07-29T13:31:43;1.60;;;1.50;;
703;SDS011;335;48.694;9.120;2023-07-29T13:34:08;2.37;;;2.17;;
703;SDS011;335;48.694;9.120;2023-07-29T13:36:33;1.13;;;1.13;;
703;SDS011;335;48.694;9.120;2023-07-29T13:38:59;1.47;;;1.37;;
703;SDS011;335;48.694;9.120;2023-07-29T13:41:24;1.90;;;1.80;;
703;SDS011;335;48.694;9.120;2023-07-29T13:43:49;1.47;;;1.40;;
703;SDS011;335;48.694;9.120;2023-07-29T13:46:15;1.70;;;1.43;;
703;SDS011;335;48.694;9.120;2023-07-29T13:48:40;1.30;;;1.30;;
703;SDS011;335;48.694;9.120;2023-07-29T13:51:05;1.27;;;1.27;;
703;SDS011;335;48.694;9.120;2023-07-29T13:53:31;1.67;;;1.57;;
703;SDS011;335;48.694;9.120;2023-07-29T13:55:56;0.90;;;0.90;;
703;SDS011;335;48.694;9.120;2023-07-29T13:58:21;1.83;;;1.73;;
703;SDS011;335;48.694;9.120;2023-07-29T14:00:47;1.60;;;1.50;;
703;SDS011;335;48.694;9.120;2023-07-29T14:03:12;1.17;;;1.17;;
703;SDS011;335;48.694;9.120;2023-07-29T14:05:37;1.20;;;1.20;;
703;SDS011;335;48.694;9.120;2023-07-29T14:08:03;1.83;;;1.80;;
703;SDS011;335;48.694;9.120;2023-07-29T14:10:28;1.47;;;1.37;;
703;SDS011;335;48.694;9.120;2023-07-29T14:12:54;1.80;;;1.70;;
703;SDS011;335;48.694;9.120;2023-07-29T14:15:19;1.43;;;1.43;;
703;SDS011;335;48.694;9.120;2023-07-29T14:17:44;1.80;;;1.70;;
703;SDS011;335;48.694;9.120;2023-07-29T14:20:10;1.77;;;1.67;;
703;SDS011;335;48.694;9.120;2023-07-29T14:22:36;1.63;;;1.53;;
703;SDS011;335;48.694;9.120;2023-07-29T14:25:01;1.70;;;1.60;;
703;SDS011;335;48.694;9.120;2023-07-29T14:27:27;1.30;;;1.20;;
703;SDS011;335;48.694;9.120;2023-07-29T14:29:52;1.80;;;1.70;;
703;SDS011;335;48.694;9.120;2023-07-29T14:32:17;1.63;;;1.53;;
703;SDS011;335;48.694;9.120;2023-07-29T14:34:43;1.63;;;1.53;;
703;SDS011;335;48.694;9.120;2023-07-29T14:37:08;1.63;;;1.53;;
703;SDS011;335;48.694;9.120;2023-07-29T14:39:33;1.70;;;1.60;;
703;SDS011;335;48.694;9.120;2023-07-29T14:41:59;1.80;;;1.70;;
703;SDS011;335;48.694;9.120;2023-07-29T14:44:24;1.30;;;1.30;;
703;SDS011;335;48.694;9.120;2023-07-29T14:46:50;1.47;;;1.30;;
703;SDS011;335;48.694;9.120;2023-07-29T14:49:15;2.00;;;1.90;;
703;SDS011;335;48.694;9.120;2023-07-29T14:51:40;1.90;;;1.80;;
703;SDS011;335;48.694;9.120;2023-07-29T14:54:05;1.47;;;1.47;;
703;SDS011;335;48.694;9.120;2023-07-29T14:56:32;1.80;;;1.70;;
703;SDS011;335;48.694;9.120;2023-07-29T14:58:57;1.73;;;1.63;;
703;SDS011;335;48.694;9.120;2023-07-29T15:01:23;2.33;;;2.23;;
703;SDS011;335;48.694;9.120;2023-07-29T15:03:48;1.80;;;1.70;;
703;SDS011;335;48.694;9.120;2023-07-29T15:06:13;1.40;;;1.30;;
703;SDS011;335;48.694;9.120;2023-07-29T15:08:39;1.60;;;1.60;;
703;SDS011;335;48.694;9.120;2023-07-29T15:11:04;1.93;;;1.83;;
703;SDS011;335;48.694;9.120;2023-07-29T15:13:29;1.90;;;1.80;;
703;SDS011;335;48.694;9.120;2023-07-29T15:15:55;1.50;;;1.50;;
703;SDS011;335;48.694;9.120;2023-07-29T15:18:20;2.10;;;2.00;;
703;SDS011;335;48.694;9.120;2023-07-29T15:20:45;1.50;;;1.40;;
703;SDS011;335;48.694;9.120;2023-07-29T15:23:11;1.53;;;1.53;;
703;SDS011;335;48.694;9.120;2023-07-29T15:25:36;1.57;;;1.57;;
703;SDS011;335;48.694;9.120;2023-07-29T15:28:03;1.40;;;1.40;;
703;SDS011;335;48.694;9.120;2023-07-29T15:30:29;1.23;;;1.23;;
703;SDS011;335;48.694;9.120;2023-07-29T15:32:54;1.60;;;1.50;;
703;SDS011;335;48.694;9.120;2023-07-29T15:35:21;1.60;;;1.50;;
703;SDS011;335;48.694;9.120;2023-07-29T15:37:46;1.63;;;1.50;;
703;SDS011;335;48.694;9.120;2023-07-29T15:40:12;1.60;;;1.60;;
703;SDS011;335;48.694;9.120;2023-07-29T15:42:38;1.30;;;1.30;;
703;SDS011;335;48.694;9.120;2023-07-29T15:45:03;1.90;;;1.47;;
703;SDS011;335;48.694;9.120;2023-07-29T15:47:29;1.40;;;1.30;;
703;SDS011;335;48.694;9.120;2023-07-29T15:49:55;1.77;;;1.67;;
703;SDS011;335;48.694;9.120;2023-07-29T15:52:20;2.00;;;1.90;;
703;SDS011;335;48.694;9.120;2023-07-29T15:54:46;1.30;;;1.30;;
703;SDS011;335;48.694;9.120;2023-07-29T15:57:12;2.10;;;1.57;;
703;SDS011;335;48.694;9.120;2023-07-29T15:59:37;1.40;;;1.40;;
703;SDS011;335;48.694;9.120;2023-07-29T16:02:02;1.90;;;1.80;;